createdAt,value
2023-03-13T00:00:12.474Z,85.34
2023-03-13T00:01:37.949Z,85.38
2023-03-13T00:02:40.602Z,85.31
2023-03-13T00:03:43.374Z,85.35
2023-03-13T00:04:46.119Z,85.34
2023-03-13T00:05:48.797Z,85.25
2023-03-13T00:06:51.484Z,85.27
2023-03-13T00:07:54.241Z,85.45
2023-03-13T00:08:57.057Z,85.27
2023-03-13T00:10:00.049Z,85.28
2023-03-13T00:11:04.377Z,85.31
2023-03-13T00:12:07.265Z,85.31
2023-03-13T00:13:09.981Z,85.41
2023-03-13T00:14:12.929Z,85.42
2023-03-13T00:15:15.694Z,85.36
2023-03-13T00:16:18.414Z,85.22
2023-03-13T00:17:21.097Z,85.31
2023-03-13T00:18:23.791Z,85.22
2023-03-13T00:19:26.452Z,85.32
2023-03-13T00:20:29.795Z,85.28
2023-03-13T00:21:33.283Z,85.34
2023-03-13T00:22:36.008Z,85.45
2023-03-13T00:23:39.003Z,85.35
2023-03-13T00:24:41.683Z,85.34
2023-03-13T00:25:44.389Z,85.26
2023-03-13T00:26:47.047Z,85.23
2023-03-13T00:27:49.787Z,85.27
2023-03-13T00:28:53.160Z,85.20
2023-03-13T00:29:55.870Z,85.23
2023-03-13T00:31:05.409Z,85.23
2023-03-13T00:32:08.143Z,85.38
2023-03-13T00:33:11.002Z,85.42
2023-03-13T00:34:13.734Z,85.49
2023-03-13T00:35:16.587Z,85.45
2023-03-13T00:36:21.060Z,85.32
2023-03-13T00:37:24.446Z,85.35
2023-03-13T00:38:28.297Z,85.25
2023-03-13T00:39:31.024Z,85.38
2023-03-13T00:40:33.673Z,85.42
2023-03-13T00:41:37.057Z,85.36
2023-03-13T00:42:41.083Z,85.37
2023-03-13T00:43:44.411Z,85.41
2023-03-13T00:44:47.269Z,85.30
2023-03-13T00:45:50.016Z,85.31
2023-03-13T00:46:52.765Z,85.41
2023-03-13T00:47:55.617Z,85.33
2023-03-13T00:48:58.289Z,85.30
2023-03-13T00:50:00.970Z,85.37
2023-03-13T00:51:03.977Z,85.48
2023-03-13T00:52:07.016Z,85.37
2023-03-13T00:53:09.706Z,85.46
2023-03-13T00:54:12.376Z,85.45
2023-03-13T00:55:15.196Z,85.32
2023-03-13T00:56:19.237Z,85.36
2023-03-13T00:57:21.895Z,85.35
2023-03-13T00:58:26.044Z,85.37
2023-03-13T00:59:28.791Z,85.30
2023-03-13T01:00:31.493Z,85.32
2023-03-13T01:01:35.801Z,85.33
2023-03-13T01:02:41.597Z,85.36
2023-03-13T01:03:46.473Z,85.31
2023-03-13T01:04:49.139Z,85.26
2023-03-13T01:05:55.522Z,85.28
2023-03-13T01:06:58.349Z,85.20
2023-03-13T01:08:01.029Z,85.20
2023-03-13T01:09:05.131Z,85.13
2023-03-13T01:10:07.971Z,85.19
2023-03-13T01:11:12.464Z,85.21
2023-03-13T01:12:15.150Z,85.20
2023-03-13T01:13:17.800Z,85.17
2023-03-13T01:14:20.545Z,85.19
2023-03-13T01:15:24.320Z,85.13
2023-03-13T01:16:27.764Z,85.19
2023-03-13T01:17:30.780Z,85.12
2023-03-13T01:18:34.093Z,85.12
2023-03-13T01:19:36.828Z,85.15
2023-03-13T01:20:40.987Z,85.06
2023-03-13T01:21:44.583Z,85.18
2023-03-13T01:22:47.426Z,85.07
2023-03-13T01:23:50.960Z,85.18
2023-03-13T01:24:54.012Z,85.11
2023-03-13T01:25:57.098Z,85.14
2023-03-13T01:26:59.775Z,85.10
2023-03-13T01:28:02.509Z,85.11
2023-03-13T01:29:05.313Z,85.11
2023-03-13T01:30:08.377Z,85.15
2023-03-13T01:31:15.031Z,85.11
2023-03-13T01:32:17.825Z,85.06
2023-03-13T01:33:20.514Z,85.03
2023-03-13T01:34:23.386Z,85.03
2023-03-13T01:35:27.452Z,84.99
2023-03-13T01:36:30.379Z,85.18
2023-03-13T01:37:33.654Z,85.00
2023-03-13T01:38:36.730Z,85.05
2023-03-13T01:39:39.463Z,85.02
2023-03-13T01:40:43.331Z,85.00
2023-03-13T01:41:45.991Z,85.08
2023-03-13T01:42:49.729Z,85.07
2023-03-13T01:43:52.722Z,85.02
2023-03-13T01:44:57.034Z,85.13
2023-03-13T01:46:01.239Z,85.13
2023-03-13T01:47:08.027Z,85.02
2023-03-13T01:48:30.117Z,85.03
2023-03-13T01:49:34.725Z,85.12
2023-03-13T01:50:47.335Z,84.99
2023-03-13T01:52:04.010Z,85.01
2023-03-13T01:53:08.148Z,85.05
2023-03-13T01:54:10.853Z,85.02
2023-03-13T01:55:16.366Z,85.01
2023-03-13T01:56:25.500Z,85.07
2023-03-13T01:57:32.529Z,85.06
2023-03-13T01:58:36.738Z,84.98
2023-03-13T01:59:49.161Z,84.93
2023-03-13T02:00:51.916Z,85.05
2023-03-13T02:01:57.548Z,84.97
2023-03-13T02:03:04.178Z,85.05
2023-03-13T02:04:09.768Z,85.06
2023-03-13T02:05:14.259Z,85.06
2023-03-13T02:06:17.764Z,85.00
2023-03-13T02:07:23.854Z,85.23
2023-03-13T02:08:52.609Z,85.09
2023-03-13T02:09:56.871Z,85.09
2023-03-13T02:11:07.559Z,85.18
2023-03-13T02:12:11.728Z,85.17
2023-03-13T02:13:15.481Z,85.19
2023-03-13T02:14:22.256Z,85.23
2023-03-13T02:15:26.023Z,85.29
2023-03-13T02:16:29.438Z,85.34
2023-03-13T02:17:33.932Z,85.26
2023-03-13T02:18:38.330Z,85.31
2023-03-13T02:19:42.318Z,85.30
2023-03-13T02:20:45.195Z,85.31
2023-03-13T02:22:06.771Z,85.37
2023-03-13T02:23:28.042Z,85.22
2023-03-13T02:24:38.141Z,85.28
2023-03-13T02:25:48.262Z,85.28
2023-03-13T02:26:53.086Z,85.27
2023-03-13T02:27:55.861Z,85.43
2023-03-13T02:28:58.626Z,85.31
2023-03-13T02:30:04.288Z,85.39
2023-03-13T02:31:08.065Z,85.30
2023-03-13T02:32:11.228Z,85.37
2023-03-13T02:33:14.829Z,85.27
2023-03-13T02:34:20.649Z,85.39
2023-03-13T02:35:24.287Z,85.34
2023-03-13T02:36:28.421Z,85.42
2023-03-13T02:37:32.158Z,85.43
2023-03-13T02:38:45.129Z,85.33
2023-03-13T02:39:50.206Z,85.49
2023-03-13T02:40:53.739Z,85.46
2023-03-13T02:41:57.490Z,85.44
2023-03-13T02:43:02.957Z,85.39
2023-03-13T02:44:06.918Z,85.45
2023-03-13T02:45:10.531Z,85.38
2023-03-13T02:46:15.342Z,85.44
2023-03-13T02:47:21.036Z,85.37
2023-03-13T02:48:34.649Z,85.40
2023-03-13T02:49:37.400Z,85.47
2023-03-13T02:50:40.149Z,85.47
2023-03-13T02:51:44.912Z,85.42
2023-03-13T02:52:56.205Z,85.49
2023-03-13T02:54:02.265Z,85.50
2023-03-13T02:55:09.521Z,85.48
2023-03-13T02:56:13.278Z,85.57
2023-03-13T02:57:15.944Z,85.56
2023-03-13T02:58:18.720Z,85.53
2023-03-13T02:59:21.578Z,85.61
2023-03-13T03:00:26.880Z,85.70
2023-03-13T03:01:30.719Z,85.52
2023-03-13T03:02:33.586Z,85.58
2023-03-13T03:03:37.056Z,85.64
2023-03-13T03:04:39.774Z,85.66
2023-03-13T03:05:42.528Z,85.58
2023-03-13T03:06:45.274Z,85.60
2023-03-13T03:07:48.874Z,85.64
2023-03-13T03:08:51.597Z,85.65
2023-03-13T03:09:54.332Z,85.60
2023-03-13T03:10:57.091Z,85.64
2023-03-13T03:12:00.049Z,85.63
2023-03-13T03:13:03.813Z,85.61
2023-03-13T03:14:06.870Z,85.68
2023-03-13T03:15:13.108Z,85.75
2023-03-13T03:16:20.702Z,85.72
2023-03-13T03:17:23.439Z,85.73
2023-03-13T03:18:26.276Z,85.63
2023-03-13T03:19:29.099Z,85.65
2023-03-13T03:20:31.974Z,85.72
2023-03-13T03:21:34.724Z,85.68
2023-03-13T03:22:38.690Z,85.74
2023-03-13T03:23:41.384Z,85.68
2023-03-13T03:24:44.196Z,85.68
2023-03-13T03:25:47.145Z,85.65
2023-03-13T03:26:50.134Z,85.67
2023-03-13T03:27:58.238Z,85.70
2023-03-13T03:29:02.055Z,85.74
2023-03-13T03:30:05.439Z,85.74
2023-03-13T03:31:10.118Z,85.71
2023-03-13T03:32:12.958Z,85.72
2023-03-13T03:33:15.653Z,85.80
2023-03-13T03:34:18.353Z,85.82
2023-03-13T03:35:21.883Z,85.76
2023-03-13T03:36:24.659Z,85.76
2023-03-13T03:37:27.573Z,85.78
2023-03-13T03:38:30.521Z,85.81
2023-03-13T03:39:33.289Z,85.83
2023-03-13T03:40:36.522Z,85.89
2023-03-13T03:41:39.279Z,85.89
2023-03-13T03:42:42.324Z,85.90
2023-03-13T03:43:45.219Z,85.93
2023-03-13T03:44:49.372Z,86.00
2023-03-13T03:45:52.211Z,85.99
2023-03-13T03:46:55.463Z,86.03
2023-03-13T03:48:01.339Z,86.04
2023-03-13T03:49:04.127Z,86.08
2023-03-13T03:50:07.763Z,86.17
2023-03-13T03:51:16.100Z,86.29
2023-03-13T03:52:20.179Z,86.25
2023-03-13T03:53:24.294Z,86.25
2023-03-13T03:54:27.063Z,86.32
2023-03-13T03:55:29.757Z,86.42
2023-03-13T03:56:32.641Z,86.45
2023-03-13T03:57:35.673Z,86.47
2023-03-13T03:58:39.756Z,86.41
2023-03-13T03:59:48.232Z,86.54
2023-03-13T04:00:51.439Z,86.47
2023-03-13T04:01:54.230Z,86.50
2023-03-13T04:02:59.573Z,86.58
2023-03-13T04:04:02.447Z,86.58
2023-03-13T04:05:05.801Z,86.58
2023-03-13T04:06:10.610Z,86.75
2023-03-13T04:07:13.788Z,86.67
2023-03-13T04:08:16.902Z,86.73
2023-03-13T04:09:19.661Z,86.70
2023-03-13T04:10:22.806Z,86.86
2023-03-13T04:11:25.471Z,86.77
2023-03-13T04:12:30.548Z,86.84
2023-03-13T04:13:33.614Z,86.85
2023-03-13T04:14:36.371Z,86.90
2023-03-13T04:15:42.255Z,87.10
2023-03-13T04:16:46.468Z,86.99
2023-03-13T04:17:50.970Z,87.13
2023-03-13T04:18:56.184Z,87.03
2023-03-13T04:20:01.502Z,87.21
2023-03-13T04:21:06.265Z,87.31
2023-03-13T04:22:29.201Z,87.47
2023-03-13T04:23:33.970Z,87.56
2023-03-13T04:24:36.755Z,87.62
2023-03-13T04:25:39.591Z,87.59
2023-03-13T04:26:45.038Z,87.74
2023-03-13T04:27:48.049Z,87.87
2023-03-13T04:28:51.091Z,87.82
2023-03-13T04:29:58.856Z,87.97
2023-03-13T04:31:01.612Z,88.00
2023-03-13T04:32:23.168Z,88.07
2023-03-13T04:33:38.415Z,88.11
2023-03-13T04:35:02.209Z,88.26
2023-03-13T04:36:34.003Z,88.34
2023-03-13T04:37:55.370Z,88.37
2023-03-13T04:39:06.482Z,88.42
2023-03-13T04:40:38.848Z,88.56
2023-03-13T04:41:55.163Z,88.57
2023-03-13T04:43:18.267Z,88.55
2023-03-13T04:44:40.046Z,88.53
2023-03-13T04:46:02.552Z,88.57
2023-03-13T04:47:38.929Z,88.69
2023-03-13T04:49:02.046Z,88.76
2023-03-13T04:50:20.269Z,88.71
2023-03-13T04:51:34.362Z,89.00
2023-03-13T04:53:00.772Z,88.88
2023-03-13T04:54:19.581Z,89.07
2023-03-13T04:55:41.230Z,88.97
2023-03-13T04:57:02.572Z,88.98
2023-03-13T04:58:16.219Z,89.14
2023-03-13T04:59:23.852Z,89.04
2023-03-13T05:00:36.231Z,89.14
2023-03-13T05:01:46.009Z,89.15
2023-03-13T05:03:06.252Z,89.25
2023-03-13T05:04:25.586Z,89.29
2023-03-13T05:05:51.132Z,89.27
2023-03-13T05:06:53.828Z,89.37
2023-03-13T05:08:36.260Z,89.45
2023-03-13T05:09:57.647Z,89.51
2023-03-13T05:11:23.920Z,89.54
2023-03-13T05:12:52.510Z,89.49
2023-03-13T05:14:11.641Z,89.65
2023-03-13T05:15:26.277Z,89.64
2023-03-13T05:16:38.920Z,89.68
2023-03-13T05:17:50.783Z,89.79
2023-03-13T05:18:57.589Z,89.86
2023-03-13T05:20:16.564Z,89.80
2023-03-13T05:21:36.546Z,89.83
2023-03-13T05:22:58.493Z,89.92
2023-03-13T05:24:33.281Z,89.99
2023-03-13T05:25:55.579Z,90.06
2023-03-13T05:27:16.954Z,90.02
2023-03-13T05:28:30.024Z,90.07
2023-03-13T05:29:50.657Z,90.17
2023-03-13T05:31:13.796Z,90.16
2023-03-13T05:32:25.911Z,90.16
2023-03-13T05:34:01.248Z,90.29
2023-03-13T05:35:20.756Z,90.34
2023-03-13T05:36:42.382Z,90.37
2023-03-13T05:37:50.878Z,90.45
2023-03-13T05:38:53.915Z,90.52
2023-03-13T05:40:05.879Z,90.48
2023-03-13T05:41:18.047Z,90.46
2023-03-13T05:42:39.452Z,90.59
2023-03-13T05:44:00.235Z,90.53
2023-03-13T05:45:22.941Z,90.61
2023-03-13T05:46:31.626Z,90.70
2023-03-13T05:47:54.644Z,90.64
2023-03-13T05:49:17.728Z,90.71
2023-03-13T05:50:38.812Z,90.81
2023-03-13T05:51:56.304Z,90.70
2023-03-13T05:53:17.054Z,90.82
2023-03-13T05:54:40.858Z,90.89
2023-03-13T05:56:00.384Z,90.91
2023-03-13T05:57:18.378Z,90.99
2023-03-13T05:58:47.266Z,90.95
2023-03-13T06:00:09.041Z,91.06
2023-03-13T06:01:25.200Z,91.13
2023-03-13T06:02:33.541Z,91.05
2023-03-13T06:03:36.423Z,91.19
2023-03-13T06:04:39.609Z,91.27
2023-03-13T06:05:42.653Z,91.22
2023-03-13T06:06:57.011Z,91.41
2023-03-13T06:08:00.394Z,91.39
2023-03-13T06:09:03.407Z,91.34
2023-03-13T06:10:08.239Z,91.35
2023-03-13T06:11:11.119Z,91.48
2023-03-13T06:12:14.384Z,91.53
2023-03-13T06:13:20.307Z,91.62
2023-03-13T06:14:26.706Z,91.60
2023-03-13T06:15:57.032Z,91.59
2023-03-13T06:17:18.588Z,91.64
2023-03-13T06:18:21.292Z,91.76
2023-03-13T06:19:24.545Z,91.70
2023-03-13T06:20:27.367Z,91.80
2023-03-13T06:21:30.182Z,91.80
2023-03-13T06:22:32.939Z,91.80
2023-03-13T06:23:36.179Z,91.90
2023-03-13T06:24:39.318Z,91.90
2023-03-13T06:25:42.011Z,91.86
2023-03-13T06:26:44.770Z,91.89
2023-03-13T06:27:47.427Z,91.94
2023-03-13T06:28:50.320Z,91.95
2023-03-13T06:29:53.112Z,92.03
2023-03-13T06:30:55.774Z,91.96
2023-03-13T06:31:58.552Z,92.06
2023-03-13T06:33:01.523Z,91.93
2023-03-13T06:34:04.291Z,91.93
2023-03-13T06:35:07.030Z,92.06
2023-03-13T06:36:09.957Z,92.10
2023-03-13T06:37:12.787Z,92.05
2023-03-13T06:38:15.609Z,92.14
2023-03-13T06:39:18.290Z,92.19
2023-03-13T06:40:21.108Z,92.11
2023-03-13T06:41:24.567Z,92.14
2023-03-13T06:42:27.289Z,92.22
2023-03-13T06:43:30.118Z,92.22
2023-03-13T06:44:32.958Z,92.14
2023-03-13T06:45:36.202Z,92.14
2023-03-13T06:46:38.897Z,92.13
2023-03-13T06:47:41.576Z,92.18
2023-03-13T06:48:44.818Z,92.20
2023-03-13T06:49:47.466Z,92.12
2023-03-13T06:50:50.286Z,92.21
2023-03-13T06:51:52.979Z,92.23
2023-03-13T06:52:55.719Z,92.29
2023-03-13T06:53:58.402Z,92.20
2023-03-13T06:55:01.130Z,92.30
2023-03-13T06:56:03.935Z,92.30
2023-03-13T06:57:06.608Z,92.37
2023-03-13T06:58:16.149Z,92.26
2023-03-13T06:59:24.354Z,92.24
2023-03-13T07:00:27.016Z,92.25
2023-03-13T07:01:29.720Z,92.30
2023-03-13T07:02:32.868Z,92.32
2023-03-13T07:03:36.005Z,92.25
2023-03-13T07:04:44.178Z,92.39
2023-03-13T07:05:47.851Z,92.22
2023-03-13T07:06:51.148Z,92.35
2023-03-13T07:07:53.808Z,92.40
2023-03-13T07:08:56.709Z,92.31
2023-03-13T07:09:59.624Z,92.29
2023-03-13T07:11:03.538Z,92.38
2023-03-13T07:12:06.472Z,92.41
2023-03-13T07:13:09.195Z,92.40
2023-03-13T07:14:16.969Z,92.38
2023-03-13T07:15:20.826Z,92.36
2023-03-13T07:16:23.546Z,92.32
2023-03-13T07:17:26.293Z,92.22
2023-03-13T07:18:29.013Z,92.34
2023-03-13T07:19:31.687Z,92.23
2023-03-13T07:20:34.406Z,92.22
2023-03-13T07:21:37.535Z,92.27
2023-03-13T07:22:40.221Z,92.32
2023-03-13T07:23:42.945Z,92.29
2023-03-13T07:24:45.689Z,92.23
2023-03-13T07:26:02.796Z,92.21
2023-03-13T07:27:08.010Z,92.20
2023-03-13T07:28:10.981Z,92.25
2023-03-13T07:29:13.633Z,92.49
2023-03-13T07:30:16.399Z,92.31
2023-03-13T07:31:20.602Z,92.22
2023-03-13T07:32:23.561Z,92.23
2023-03-13T07:33:26.267Z,92.32
2023-03-13T07:34:29.077Z,92.25
2023-03-13T07:35:32.002Z,92.15
2023-03-13T07:36:35.550Z,92.15
2023-03-13T07:37:38.255Z,92.12
2023-03-13T07:38:41.098Z,92.10
2023-03-13T07:39:44.072Z,92.18
2023-03-13T07:40:53.783Z,92.23
2023-03-13T07:41:56.536Z,92.18
2023-03-13T07:42:59.201Z,92.16
2023-03-13T07:44:01.968Z,92.36
2023-03-13T07:45:04.772Z,92.30
2023-03-13T07:46:09.389Z,92.15
2023-03-13T07:47:12.151Z,92.23
2023-03-13T07:48:14.834Z,92.22
2023-03-13T07:49:17.584Z,92.25
2023-03-13T07:50:20.738Z,92.31
2023-03-13T07:51:36.853Z,92.22
2023-03-13T07:52:43.357Z,92.25
2023-03-13T07:53:47.747Z,92.30
2023-03-13T07:54:50.397Z,92.22
2023-03-13T07:55:54.009Z,92.30
2023-03-13T07:56:56.639Z,92.17
2023-03-13T07:57:59.280Z,92.14
2023-03-13T07:59:01.947Z,92.09
2023-03-13T08:00:06.479Z,92.26
2023-03-13T08:01:19.636Z,92.21
2023-03-13T08:02:22.395Z,91.92
2023-03-13T08:03:25.590Z,91.80
2023-03-13T08:04:28.290Z,91.81
2023-03-13T08:05:30.922Z,91.74
2023-03-13T08:06:37.150Z,91.76
2023-03-13T08:07:39.827Z,91.66
2023-03-13T08:08:43.090Z,91.48
2023-03-13T08:09:46.031Z,91.44
2023-03-13T08:10:48.698Z,91.46
2023-03-13T08:11:51.448Z,91.44
2023-03-13T08:12:54.123Z,91.36
2023-03-13T08:13:58.296Z,91.33
2023-03-13T08:15:00.946Z,91.23
2023-03-13T08:16:07.823Z,91.26
2023-03-13T08:17:10.617Z,91.25
2023-03-13T08:18:13.285Z,91.18
2023-03-13T08:19:16.058Z,91.12
2023-03-13T08:20:21.981Z,91.17
2023-03-13T08:21:26.450Z,91.16
2023-03-13T08:22:29.172Z,91.25
2023-03-13T08:23:32.116Z,91.10
2023-03-13T08:24:34.799Z,91.17
2023-03-13T08:25:37.420Z,91.23
2023-03-13T08:26:40.979Z,91.17
2023-03-13T08:27:43.973Z,91.15
2023-03-13T08:28:47.786Z,91.08
2023-03-13T08:29:50.467Z,91.24
2023-03-13T08:30:53.332Z,91.06
2023-03-13T08:31:56.033Z,91.24
2023-03-13T08:32:58.778Z,91.16
2023-03-13T08:34:01.771Z,91.14
2023-03-13T08:35:04.885Z,91.28
2023-03-13T08:36:21.796Z,91.35
2023-03-13T08:37:24.476Z,91.28
2023-03-13T08:38:27.142Z,91.43
2023-03-13T08:39:29.779Z,91.29
2023-03-13T08:40:32.439Z,91.32
2023-03-13T08:41:36.686Z,91.31
2023-03-13T08:42:40.300Z,91.16
2023-03-13T08:43:43.458Z,91.30
2023-03-13T08:44:46.101Z,91.17
2023-03-13T08:45:54.267Z,91.31
2023-03-13T08:46:57.745Z,91.29
2023-03-13T08:48:00.648Z,91.44
2023-03-13T08:49:04.111Z,91.42
2023-03-13T08:50:07.046Z,91.54
2023-03-13T08:51:10.958Z,91.55
2023-03-13T08:52:13.652Z,91.43
2023-03-13T08:53:16.334Z,91.61
2023-03-13T08:54:19.038Z,91.57
2023-03-13T08:55:21.784Z,91.58
2023-03-13T08:56:26.012Z,91.54
2023-03-13T08:57:28.675Z,91.17
2023-03-13T08:58:31.784Z,91.27
2023-03-13T08:59:34.846Z,91.06
2023-03-13T09:00:37.584Z,90.93
2023-03-13T09:01:40.223Z,90.94
2023-03-13T09:02:42.936Z,90.73
2023-03-13T09:03:45.819Z,90.50
2023-03-13T09:04:48.938Z,90.42
2023-03-13T09:05:56.343Z,90.45
2023-03-13T09:06:59.429Z,90.31
2023-03-13T09:08:02.127Z,89.97
2023-03-13T09:09:06.186Z,89.94
2023-03-13T09:10:09.081Z,90.05
2023-03-13T09:11:16.218Z,89.70
2023-03-13T09:12:30.399Z,89.65
2023-03-13T09:13:35.941Z,89.66
2023-03-13T09:14:38.679Z,89.61
2023-03-13T09:15:41.328Z,89.74
2023-03-13T09:16:46.396Z,89.81
2023-03-13T09:17:49.080Z,89.70
2023-03-13T09:18:52.542Z,89.60
2023-03-13T09:20:00.621Z,89.51
2023-03-13T09:21:05.736Z,89.44
2023-03-13T09:22:09.699Z,89.27
2023-03-13T09:23:12.461Z,88.89
2023-03-13T09:24:15.782Z,88.65
2023-03-13T09:25:18.418Z,88.57
2023-03-13T09:26:23.216Z,88.50
2023-03-13T09:27:28.258Z,88.53
2023-03-13T09:28:31.003Z,88.24
2023-03-13T09:29:33.891Z,88.22
2023-03-13T09:30:36.626Z,88.19
2023-03-13T09:31:41.250Z,88.06
2023-03-13T09:32:43.943Z,88.16
2023-03-13T09:33:48.917Z,88.15
2023-03-13T09:34:51.566Z,88.35
2023-03-13T09:35:54.300Z,88.33
2023-03-13T09:36:57.112Z,88.41
2023-03-13T09:37:59.817Z,88.35
2023-03-13T09:39:02.676Z,88.42
2023-03-13T09:40:05.920Z,88.31
2023-03-13T09:41:17.414Z,88.05
2023-03-13T09:42:20.035Z,87.94
2023-03-13T09:43:35.446Z,87.83
2023-03-13T09:44:43.467Z,87.92
2023-03-13T09:45:48.295Z,87.96
2023-03-13T09:46:54.175Z,87.76
2023-03-13T09:47:59.532Z,87.86
2023-03-13T09:49:05.238Z,87.70
2023-03-13T09:50:20.818Z,87.70
2023-03-13T09:51:26.008Z,87.55
2023-03-13T09:52:31.721Z,87.31
2023-03-13T09:53:40.111Z,87.16
2023-03-13T09:54:58.863Z,87.22
2023-03-13T09:56:03.866Z,87.18
2023-03-13T09:57:19.422Z,87.04
2023-03-13T09:58:24.634Z,86.64
2023-03-13T09:59:48.178Z,86.57
2023-03-13T10:00:55.892Z,86.58
2023-03-13T10:02:00.565Z,86.60
2023-03-13T10:03:07.905Z,86.71
2023-03-13T10:04:19.742Z,86.63
2023-03-13T10:05:24.216Z,86.44
2023-03-13T10:06:28.894Z,86.27
2023-03-13T10:07:31.785Z,86.32
2023-03-13T10:08:35.143Z,86.35
2023-03-13T10:09:38.235Z,86.31
2023-03-13T10:10:45.442Z,86.27
2023-03-13T10:11:54.313Z,86.23
2023-03-13T10:13:02.905Z,86.13
2023-03-13T10:14:11.766Z,85.95
2023-03-13T10:15:31.796Z,85.96
2023-03-13T10:16:34.504Z,86.24
2023-03-13T10:17:40.503Z,86.11
2023-03-13T10:18:48.831Z,86.24
2023-03-13T10:19:56.358Z,86.44
2023-03-13T10:21:01.575Z,86.46
2023-03-13T10:22:10.584Z,86.46
2023-03-13T10:23:16.398Z,86.41
2023-03-13T10:24:25.242Z,86.35
2023-03-13T10:25:35.389Z,86.42
2023-03-13T10:26:38.170Z,86.44
2023-03-13T10:28:02.927Z,86.36
2023-03-13T10:29:22.839Z,86.37
2023-03-13T10:30:30.450Z,86.45
2023-03-13T10:31:34.150Z,86.32
2023-03-13T10:32:36.864Z,86.34
2023-03-13T10:33:40.318Z,86.44
2023-03-13T10:35:00.440Z,86.56
2023-03-13T10:36:08.232Z,86.72
2023-03-13T10:37:14.432Z,86.79
2023-03-13T10:38:21.659Z,86.86
2023-03-13T10:39:26.456Z,86.93
2023-03-13T10:40:29.679Z,86.94
2023-03-13T10:41:36.244Z,86.93
2023-03-13T10:42:43.549Z,86.46
2023-03-13T10:43:50.954Z,86.55
2023-03-13T10:44:59.087Z,86.76
2023-03-13T10:46:03.974Z,86.75
2023-03-13T10:47:06.823Z,86.76
2023-03-13T10:48:15.225Z,86.52
2023-03-13T10:49:18.953Z,86.78
2023-03-13T10:50:23.110Z,86.89
2023-03-13T10:51:31.777Z,86.80
2023-03-13T10:52:41.525Z,86.85
2023-03-13T10:53:44.248Z,86.94
2023-03-13T10:54:46.875Z,86.90
2023-03-13T10:55:49.969Z,86.97
2023-03-13T10:57:07.022Z,87.02
2023-03-13T10:58:16.101Z,86.67
2023-03-13T10:59:21.804Z,86.69
2023-03-13T11:00:30.659Z,86.72
2023-03-13T11:01:42.645Z,86.53
2023-03-13T11:02:45.435Z,86.45
2023-03-13T11:03:49.542Z,86.48
2023-03-13T11:04:54.096Z,86.49
2023-03-13T11:06:01.479Z,86.51
2023-03-13T11:07:06.591Z,86.37
2023-03-13T11:08:22.910Z,86.54
2023-03-13T11:09:27.713Z,86.44
2023-03-13T11:10:30.636Z,86.53
2023-03-13T11:11:43.784Z,86.24
2023-03-13T11:12:48.046Z,86.06
2023-03-13T11:13:51.052Z,85.86
2023-03-13T11:14:57.542Z,85.90
2023-03-13T11:16:03.184Z,85.91
2023-03-13T11:17:22.036Z,85.96
2023-03-13T11:18:29.450Z,85.88
2023-03-13T11:19:43.826Z,85.75
2023-03-13T11:20:47.111Z,85.50
2023-03-13T11:22:04.912Z,85.42
2023-03-13T11:23:13.568Z,85.26
2023-03-13T11:24:28.608Z,85.30
2023-03-13T11:25:36.071Z,85.44
2023-03-13T11:26:44.674Z,85.49
2023-03-13T11:27:51.065Z,85.42
2023-03-13T11:29:12.096Z,85.36
2023-03-13T11:30:33.892Z,85.23
2023-03-13T11:31:41.505Z,84.95
2023-03-13T11:32:44.320Z,84.80
2023-03-13T11:33:58.500Z,84.85
2023-03-13T11:35:04.729Z,84.86
2023-03-13T11:36:07.503Z,84.79
2023-03-13T11:37:14.648Z,84.70
2023-03-13T11:38:22.437Z,84.29
2023-03-13T11:39:34.223Z,83.92
2023-03-13T11:40:54.790Z,83.88
2023-03-13T11:42:02.941Z,83.70
2023-03-13T11:43:25.124Z,83.59
2023-03-13T11:44:47.324Z,83.32
2023-03-13T11:45:53.250Z,83.07
2023-03-13T11:47:14.517Z,83.28
2023-03-13T11:48:17.206Z,83.16
2023-03-13T11:49:40.767Z,83.23
2023-03-13T11:51:07.836Z,83.40
2023-03-13T11:52:20.803Z,83.30
2023-03-13T11:53:35.858Z,83.08
2023-03-13T11:54:58.846Z,83.02
2023-03-13T11:56:04.629Z,83.15
2023-03-13T11:57:12.450Z,83.07
2023-03-13T11:58:17.948Z,82.81
2023-03-13T11:59:29.782Z,82.92
2023-03-13T12:00:39.086Z,82.84
2023-03-13T12:01:47.419Z,82.64
2023-03-13T12:03:28.795Z,82.59
2023-03-13T12:04:36.991Z,82.42
2023-03-13T12:05:53.812Z,82.46
2023-03-13T12:07:04.262Z,82.26
2023-03-13T12:08:12.543Z,82.09
2023-03-13T12:09:21.207Z,82.30
2023-03-13T12:10:27.485Z,82.49
2023-03-13T12:11:43.880Z,82.54
2023-03-13T12:12:55.614Z,82.67
2023-03-13T12:14:03.237Z,82.65
2023-03-13T12:15:26.155Z,82.85
2023-03-13T12:16:41.553Z,82.76
2023-03-13T12:17:48.643Z,82.66
2023-03-13T12:18:53.155Z,82.72
2023-03-13T12:19:59.293Z,82.84
2023-03-13T12:21:05.555Z,82.77
2023-03-13T12:22:23.179Z,82.91
2023-03-13T12:23:34.887Z,83.07
2023-03-13T12:24:46.231Z,83.25
2023-03-13T12:25:58.557Z,83.07
2023-03-13T12:27:11.715Z,83.25
2023-03-13T12:28:24.074Z,83.38
2023-03-13T12:29:35.701Z,83.36
2023-03-13T12:30:43.868Z,83.44
2023-03-13T12:31:53.551Z,83.48
2023-03-13T12:33:02.155Z,83.51
2023-03-13T12:34:23.984Z,83.59
2023-03-13T12:35:30.454Z,83.81
2023-03-13T12:36:40.495Z,83.98
2023-03-13T12:38:06.604Z,84.04
2023-03-13T12:39:15.479Z,84.07
2023-03-13T12:40:31.213Z,84.13
2023-03-13T12:41:42.076Z,84.33
2023-03-13T12:42:44.898Z,84.56
2023-03-13T12:44:00.757Z,84.70
2023-03-13T12:45:18.722Z,84.67
2023-03-13T12:46:34.847Z,84.87
2023-03-13T12:47:37.612Z,84.90
2023-03-13T12:48:46.416Z,85.14
2023-03-13T12:50:08.294Z,85.25
2023-03-13T12:51:10.964Z,85.43
2023-03-13T12:52:19.865Z,85.58
2023-03-13T12:53:36.166Z,85.69
2023-03-13T12:55:06.912Z,85.64
2023-03-13T12:56:20.400Z,85.57
2023-03-13T12:57:23.107Z,85.89
2023-03-13T12:58:29.501Z,86.07
2023-03-13T12:59:36.282Z,86.05
2023-03-13T13:00:40.864Z,86.16
2023-03-13T13:01:45.865Z,86.28
2023-03-13T13:03:00.898Z,86.49
2023-03-13T13:04:18.495Z,86.60
2023-03-13T13:05:22.212Z,86.88
2023-03-13T13:06:25.313Z,86.96
2023-03-13T13:07:29.401Z,87.12
2023-03-13T13:08:34.693Z,87.29
2023-03-13T13:09:41.950Z,87.42
2023-03-13T13:10:45.081Z,87.53
2023-03-13T13:11:48.931Z,87.74
2023-03-13T13:13:10.798Z,87.92
2023-03-13T13:14:19.438Z,88.02
2023-03-13T13:15:29.169Z,88.16
2023-03-13T13:16:32.330Z,88.29
2023-03-13T13:17:35.068Z,88.48
2023-03-13T13:18:37.801Z,88.55
2023-03-13T13:19:40.403Z,88.68
2023-03-13T13:20:45.175Z,88.74
2023-03-13T13:22:07.813Z,88.80
2023-03-13T13:23:25.860Z,89.00
2023-03-13T13:24:48.947Z,89.13
2023-03-13T13:25:52.160Z,89.25
2023-03-13T13:26:55.154Z,89.30
2023-03-13T13:28:11.557Z,89.35
2023-03-13T13:29:14.228Z,89.45
2023-03-13T13:30:16.866Z,89.60
2023-03-13T13:31:38.163Z,89.65
2023-03-13T13:32:42.213Z,89.64
2023-03-13T13:33:45.261Z,89.76
2023-03-13T13:35:06.748Z,89.82
2023-03-13T13:36:09.513Z,89.99
2023-03-13T13:37:12.266Z,90.01
2023-03-13T13:38:17.701Z,90.10
2023-03-13T13:39:39.209Z,90.14
2023-03-13T13:40:57.710Z,90.29
2023-03-13T13:42:00.687Z,90.47
2023-03-13T13:43:04.871Z,90.54
2023-03-13T13:44:21.525Z,90.74
2023-03-13T13:45:36.275Z,90.76
2023-03-13T13:46:44.312Z,90.78
2023-03-13T13:47:52.525Z,90.88
2023-03-13T13:49:13.865Z,90.98
2023-03-13T13:50:16.493Z,91.15
2023-03-13T13:51:20.384Z,91.25
2023-03-13T13:52:32.280Z,91.31
2023-03-13T13:53:43.271Z,91.45
2023-03-13T13:54:45.901Z,91.58
2023-03-13T13:55:48.774Z,91.67
2023-03-13T13:56:58.737Z,91.74
2023-03-13T13:58:05.976Z,91.80
2023-03-13T13:59:20.769Z,91.87
2023-03-13T14:00:25.067Z,92.01
2023-03-13T14:01:27.858Z,91.97
2023-03-13T14:02:38.410Z,91.95
2023-03-13T14:03:42.354Z,92.14
2023-03-13T14:04:47.811Z,92.17
2023-03-13T14:05:53.448Z,92.29
2023-03-13T14:06:59.042Z,92.26
2023-03-13T14:08:08.153Z,92.24
2023-03-13T14:09:34.586Z,92.22
2023-03-13T14:10:42.588Z,92.22
2023-03-13T14:11:45.278Z,92.24
2023-03-13T14:12:53.147Z,92.26
2023-03-13T14:14:09.093Z,92.31
2023-03-13T14:15:14.919Z,92.33
2023-03-13T14:16:27.104Z,92.41
2023-03-13T14:17:31.193Z,92.39
2023-03-13T14:18:33.916Z,92.52
2023-03-13T14:19:39.984Z,92.57
2023-03-13T14:20:53.555Z,92.70
2023-03-13T14:22:19.104Z,92.58
2023-03-13T14:23:49.007Z,92.67
2023-03-13T14:24:58.626Z,92.80
2023-03-13T14:26:17.969Z,92.73
2023-03-13T14:27:22.052Z,92.74